createdAt,value
2023-02-13T00:00:46.773Z,6.02
2023-02-13T00:03:14.683Z,6.03
2023-02-13T00:05:41.836Z,6.11
2023-02-13T00:08:08.882Z,6.14
2023-02-13T00:10:36.693Z,6.06
2023-02-13T00:13:03.793Z,6.16
2023-02-13T00:15:30.927Z,6.13
2023-02-13T00:17:57.940Z,6.14
2023-02-13T00:20:24.946Z,6.18
2023-02-13T00:22:51.969Z,6.11
2023-02-13T00:25:19.107Z,6.05
2023-02-13T00:27:46.181Z,6.15
2023-02-13T00:30:14.135Z,5.99
2023-02-13T00:32:41.129Z,6.09
2023-02-13T00:35:08.337Z,6.13
2023-02-13T00:37:35.404Z,6.16
2023-02-13T00:40:02.546Z,6.18
2023-02-13T00:42:29.570Z,6.18
2023-02-13T00:44:56.669Z,6.14
2023-02-13T00:47:23.819Z,6.19
2023-02-13T00:49:50.889Z,6.16
2023-02-13T00:52:17.942Z,6.13
2023-02-13T00:54:45.007Z,6.18
2023-02-13T00:57:11.989Z,6.17
2023-02-13T00:59:39.024Z,6.11
2023-02-13T01:02:06.014Z,6.10
2023-02-13T01:04:33.043Z,6.09
2023-02-13T01:07:00.117Z,6.07
2023-02-13T01:09:27.179Z,6.19
2023-02-13T01:11:54.258Z,6.06
2023-02-13T01:14:21.354Z,6.08
2023-02-13T01:16:48.396Z,6.14
2023-02-13T01:19:15.702Z,6.17
2023-02-13T01:21:44.161Z,6.12
2023-02-13T01:24:11.693Z,6.14
2023-02-13T01:26:39.259Z,6.17
2023-02-13T01:29:06.693Z,6.08
2023-02-13T01:31:34.388Z,6.10
2023-02-13T01:34:01.513Z,6.20
2023-02-13T01:36:28.586Z,6.04
2023-02-13T01:38:58.220Z,6.11
2023-02-13T01:41:27.382Z,6.24
2023-02-13T01:44:01.004Z,6.09
2023-02-13T01:50:39.256Z,6.14
2023-02-13T01:53:29.786Z,6.25
2023-02-13T01:56:29.017Z,6.22
2023-02-13T01:59:03.331Z,6.24
2023-02-13T02:01:32.590Z,6.13
2023-02-13T02:04:25.518Z,6.12
2023-02-13T02:07:07.009Z,6.15
2023-02-13T02:09:39.502Z,6.27
2023-02-13T02:12:18.128Z,6.18
2023-02-13T02:14:45.429Z,6.31
2023-02-13T02:17:12.877Z,6.41
2023-02-13T02:19:55.340Z,6.31
2023-02-13T02:23:28.751Z,6.40
2023-02-13T02:26:45.521Z,6.39
2023-02-13T02:33:00.925Z,6.45
2023-02-13T02:36:13.234Z,6.48
2023-02-13T02:39:06.697Z,6.38
2023-02-13T02:41:57.659Z,6.45
2023-02-13T02:45:05.728Z,6.41
2023-02-13T02:48:13.377Z,6.52
2023-02-13T02:50:59.136Z,6.48
2023-02-13T02:53:44.446Z,6.42
2023-02-13T02:56:31.848Z,6.46
2023-02-13T02:59:30.882Z,6.37
2023-02-13T03:02:17.700Z,6.30
2023-02-13T03:05:08.272Z,6.36
2023-02-13T03:07:35.261Z,6.46
2023-02-13T03:10:40.202Z,6.44
2023-02-13T03:13:23.785Z,6.51
2023-02-13T03:16:16.176Z,6.44
2023-02-13T03:19:09.121Z,6.51
2023-02-13T03:22:06.286Z,6.39
2023-02-13T03:25:12.348Z,6.43
2023-02-13T03:28:19.119Z,6.47
2023-02-13T03:30:57.927Z,6.47
2023-02-13T03:34:00.006Z,6.48
2023-02-13T03:37:08.312Z,6.45
2023-02-13T03:39:48.775Z,6.51
2023-02-13T03:42:42.411Z,6.44
2023-02-13T03:45:36.114Z,6.42
2023-02-13T03:48:27.617Z,6.49
2023-02-13T03:50:55.514Z,6.50
2023-02-13T03:53:24.532Z,6.46
2023-02-13T03:56:12.186Z,6.54
2023-02-13T03:59:07.212Z,6.51
2023-02-13T04:01:36.276Z,6.48
2023-02-13T04:04:11.572Z,6.49
2023-02-13T04:07:12.060Z,6.46
2023-02-13T04:09:42.773Z,6.42
2023-02-13T04:12:19.924Z,6.49
2023-02-13T04:15:02.330Z,6.47
2023-02-13T04:17:36.069Z,6.41
2023-02-13T04:20:03.802Z,6.37
2023-02-13T04:22:31.409Z,6.40
2023-02-13T04:24:58.470Z,6.46
2023-02-13T04:27:28.426Z,6.42
2023-02-13T04:29:55.427Z,6.50
2023-02-13T04:32:22.460Z,6.44
2023-02-13T04:34:49.455Z,6.43
2023-02-13T04:37:16.477Z,6.43
2023-02-13T04:39:43.478Z,6.51
2023-02-13T04:42:10.477Z,6.48
2023-02-13T04:44:37.472Z,6.47
2023-02-13T04:47:04.555Z,6.55
2023-02-13T04:49:31.554Z,6.46
2023-02-13T04:51:58.580Z,6.43
2023-02-13T04:54:25.607Z,6.44
2023-02-13T04:56:52.649Z,6.52
2023-02-13T04:59:19.660Z,6.49
2023-02-13T05:01:46.746Z,6.35
2023-02-13T05:04:16.385Z,6.36
2023-02-13T05:06:43.711Z,6.50
2023-02-13T05:09:11.205Z,6.46
2023-02-13T05:11:38.239Z,6.49
2023-02-13T05:14:05.288Z,6.50
2023-02-13T05:16:32.486Z,6.51
2023-02-13T05:18:59.560Z,6.57
2023-02-13T05:21:45.360Z,6.52
2023-02-13T05:24:12.416Z,6.60
2023-02-13T05:26:39.446Z,6.62
2023-02-13T05:29:23.005Z,6.55
2023-02-13T05:31:56.153Z,6.46
2023-02-13T05:34:25.600Z,6.45
2023-02-13T05:36:53.047Z,6.68
2023-02-13T05:39:20.555Z,6.53
2023-02-13T05:41:49.598Z,6.49
2023-02-13T05:44:17.343Z,6.51
2023-02-13T05:46:45.274Z,6.52
2023-02-13T05:49:14.496Z,6.66
2023-02-13T05:51:42.547Z,6.65
2023-02-13T05:54:09.748Z,6.48
2023-02-13T05:56:36.799Z,6.66
2023-02-13T05:59:04.667Z,6.65
2023-02-13T06:01:31.796Z,6.72
2023-02-13T06:04:00.051Z,6.60
2023-02-13T06:06:28.175Z,6.54
2023-02-13T06:08:55.261Z,6.63
2023-02-13T06:11:22.501Z,6.67
2023-02-13T06:13:49.524Z,6.70
2023-02-13T06:16:16.761Z,6.58
2023-02-13T06:18:44.038Z,6.69
2023-02-13T06:21:11.087Z,6.50
2023-02-13T06:23:38.191Z,6.47
2023-02-13T06:26:07.605Z,6.59
2023-02-13T06:28:35.207Z,6.65
2023-02-13T06:31:02.749Z,6.62
2023-02-13T06:33:30.045Z,6.62
2023-02-13T06:35:57.362Z,6.72
2023-02-13T06:38:24.502Z,6.66
2023-02-13T06:40:52.026Z,6.65
2023-02-13T06:43:19.368Z,6.59
2023-02-13T06:45:47.305Z,6.59
2023-02-13T06:48:14.998Z,6.56
2023-02-13T06:50:42.102Z,6.58
2023-02-13T06:53:09.136Z,6.76
2023-02-13T06:55:39.380Z,6.71
2023-02-13T06:58:06.678Z,6.64
2023-02-13T07:00:33.813Z,6.67
2023-02-13T07:03:06.538Z,6.66
2023-02-13T07:05:33.872Z,6.62
2023-02-13T07:08:00.866Z,6.70
2023-02-13T07:10:28.064Z,6.70
2023-02-13T07:13:05.270Z,6.74
2023-02-13T07:15:35.230Z,6.80
2023-02-13T07:18:02.891Z,6.80
2023-02-13T07:20:30.361Z,6.93
2023-02-13T07:23:06.390Z,7.11
2023-02-13T07:25:33.513Z,7.34
2023-02-13T07:28:06.174Z,7.49
2023-02-13T07:30:34.841Z,7.74
2023-02-13T07:33:04.615Z,9.26
2023-02-13T07:35:32.304Z,10.63
2023-02-13T07:38:00.838Z,10.08
2023-02-13T07:40:28.697Z,9.40
2023-02-13T07:42:56.766Z,9.00
2023-02-13T07:45:23.840Z,8.86
2023-02-13T07:47:50.905Z,8.77
2023-02-13T07:50:18.208Z,8.52
2023-02-13T07:52:45.189Z,8.42
2023-02-13T07:55:12.761Z,8.36
2023-02-13T07:57:39.791Z,8.44
2023-02-13T08:00:07.876Z,8.34
2023-02-13T08:02:34.955Z,8.19
2023-02-13T08:05:01.975Z,8.22
2023-02-13T08:07:28.961Z,8.08
2023-02-13T08:10:14.367Z,8.24
2023-02-13T08:12:41.812Z,8.22
2023-02-13T08:15:12.943Z,8.21
2023-02-13T08:17:39.980Z,8.16
2023-02-13T08:20:08.854Z,8.26
2023-02-13T08:22:40.061Z,8.22
2023-02-13T08:25:08.301Z,8.20
2023-02-13T08:27:35.553Z,8.20
2023-02-13T08:30:04.091Z,8.49
2023-02-13T08:32:35.416Z,8.73
2023-02-13T08:35:06.803Z,8.68
2023-02-13T08:37:34.141Z,8.83
2023-02-13T08:40:01.158Z,8.80
2023-02-13T08:42:28.247Z,8.84
2023-02-13T08:44:55.267Z,9.00
2023-02-13T08:47:22.282Z,9.00
2023-02-13T08:49:49.279Z,9.07
2023-02-13T08:52:16.327Z,9.06
2023-02-13T08:54:43.393Z,9.03
2023-02-13T08:57:10.435Z,8.93
2023-02-13T08:59:37.454Z,8.74
2023-02-13T09:02:04.497Z,8.76
2023-02-13T09:04:31.619Z,8.57
2023-02-13T09:06:58.599Z,8.52
2023-02-13T09:09:25.602Z,8.50
2023-02-13T09:11:53.982Z,8.50
2023-02-13T09:14:20.970Z,8.39
2023-02-13T09:16:47.962Z,8.41
2023-02-13T09:19:15.157Z,8.44
2023-02-13T09:21:42.179Z,8.55
2023-02-13T09:24:10.572Z,8.58
2023-02-13T09:26:37.631Z,8.35
2023-02-13T09:29:04.835Z,8.43
2023-02-13T09:31:32.010Z,8.44
2023-02-13T09:33:59.094Z,8.48
2023-02-13T09:36:26.189Z,8.45
2023-02-13T09:38:55.561Z,8.45
2023-02-13T09:41:31.990Z,8.62
2023-02-13T09:44:12.006Z,8.76
2023-02-13T09:46:41.257Z,8.82
2023-02-13T09:49:25.027Z,8.78
2023-02-13T09:51:56.930Z,8.74
2023-02-13T09:54:26.679Z,8.95
2023-02-13T09:57:25.484Z,9.01
2023-02-13T10:00:15.619Z,9.33
2023-02-13T10:03:11.813Z,9.26
2023-02-13T10:06:34.867Z,9.31
2023-02-13T10:09:11.657Z,9.44
2023-02-13T10:12:46.074Z,9.42
2023-02-13T10:16:02.278Z,9.40
2023-02-13T10:18:55.598Z,9.32
2023-02-13T10:21:30.779Z,9.32
2023-02-13T10:24:29.800Z,9.30
2023-02-13T10:27:01.249Z,9.12
2023-02-13T10:30:00.260Z,8.98
2023-02-13T10:33:11.257Z,9.06
2023-02-13T10:35:39.512Z,8.92
2023-02-13T10:38:23.457Z,8.85
2023-02-13T10:41:25.782Z,9.12
2023-02-13T10:44:10.933Z,9.15
2023-02-13T10:47:18.544Z,9.21
2023-02-13T10:50:32.026Z,9.24
2023-02-13T10:53:52.376Z,9.43
2023-02-13T10:56:44.964Z,9.45
2023-02-13T11:00:16.072Z,9.36
2023-02-13T11:02:43.197Z,9.47
2023-02-13T11:05:30.194Z,9.38
2023-02-13T11:07:59.038Z,9.47
2023-02-13T11:10:28.140Z,9.34
2023-02-13T11:12:55.856Z,9.40
2023-02-13T11:15:29.753Z,9.53
2023-02-13T11:18:19.885Z,9.43
2023-02-13T11:20:50.578Z,9.40
2023-02-13T11:23:38.674Z,9.40
2023-02-13T11:26:14.715Z,9.31
2023-02-13T11:28:52.386Z,9.14
2023-02-13T11:31:30.932Z,9.15
2023-02-13T11:34:00.401Z,9.24
2023-02-13T11:36:33.693Z,9.15
2023-02-13T11:39:17.935Z,9.26
2023-02-13T11:41:47.811Z,9.09
2023-02-13T11:44:32.251Z,8.96
2023-02-13T11:47:03.242Z,9.05
2023-02-13T11:49:41.814Z,8.88
2023-02-13T11:52:28.292Z,8.88
2023-02-13T11:55:06.641Z,8.82
2023-02-13T11:57:37.379Z,9.06
2023-02-13T12:00:37.658Z,8.95
2023-02-13T12:03:26.779Z,8.90
2023-02-13T12:06:15.606Z,8.84
2023-02-13T12:08:48.223Z,8.95
2023-02-13T12:11:39.179Z,9.24
2023-02-13T12:14:10.715Z,9.45
2023-02-13T12:16:50.906Z,9.45
2023-02-13T12:19:35.961Z,9.57
2023-02-13T12:22:34.936Z,9.62
2023-02-13T12:25:28.974Z,9.72
2023-02-13T12:28:52.683Z,9.68
2023-02-13T12:32:23.220Z,9.74
2023-02-13T12:35:18.773Z,9.64
2023-02-13T12:38:21.762Z,9.55
2023-02-13T12:41:14.507Z,9.39
2023-02-13T12:44:02.481Z,9.56
2023-02-13T12:47:04.540Z,9.51
2023-02-13T12:50:22.691Z,9.44
2023-02-13T12:53:03.045Z,9.31
2023-02-13T12:55:54.210Z,9.47
2023-02-13T12:59:00.597Z,9.48
2023-02-13T13:01:48.563Z,9.67
2023-02-13T13:04:37.445Z,9.76
2023-02-13T13:07:38.355Z,9.80
2023-02-13T13:10:17.105Z,9.97
2023-02-13T13:12:54.589Z,10.13
2023-02-13T13:16:02.804Z,10.14
2023-02-13T13:18:54.735Z,9.97
2023-02-13T13:21:53.052Z,10.01
2023-02-13T13:24:46.180Z,10.15
2023-02-13T13:27:28.484Z,10.16
2023-02-13T13:30:01.897Z,10.12
2023-02-13T13:32:31.142Z,10.10
2023-02-13T13:34:58.850Z,10.65
2023-02-13T13:37:43.130Z,11.12
2023-02-13T13:40:45.832Z,11.35
2023-02-13T13:43:33.198Z,11.57
2023-02-13T13:46:11.828Z,11.83
2023-02-13T13:48:57.107Z,11.98
2023-02-13T13:51:24.591Z,12.01
2023-02-13T13:54:03.684Z,12.19
2023-02-13T13:57:07.516Z,12.23
2023-02-13T13:59:34.472Z,12.19
2023-02-13T14:02:19.666Z,12.13
2023-02-13T14:05:32.208Z,12.21
2023-02-13T14:08:03.607Z,11.50
2023-02-13T14:10:30.630Z,11.10
2023-02-13T14:12:57.706Z,10.60
2023-02-13T14:15:44.790Z,10.51
2023-02-13T14:18:14.490Z,10.28
2023-02-13T14:20:59.527Z,10.17
2023-02-13T14:23:52.699Z,9.93
2023-02-13T14:26:35.999Z,10.12
2023-02-13T14:29:12.048Z,9.99
2023-02-13T14:31:43.491Z,10.04
2023-02-13T14:34:17.041Z,9.73
2023-02-13T14:37:00.932Z,9.65
2023-02-13T14:39:33.549Z,9.55
2023-02-13T14:42:03.523Z,9.63
2023-02-13T14:44:46.605Z,9.68
2023-02-13T14:47:42.789Z,9.61
2023-02-13T14:50:36.315Z,9.51
2023-02-13T14:53:16.345Z,9.51
2023-02-13T14:55:46.636Z,9.52
2023-02-13T14:58:35.673Z,9.35
2023-02-13T15:01:25.917Z,9.26
2023-02-13T15:04:10.683Z,9.20
2023-02-13T15:06:42.766Z,9.10
2023-02-13T15:09:22.393Z,9.19
2023-02-13T15:11:49.904Z,9.18
2023-02-13T15:14:33.586Z,9.09
2023-02-13T15:17:24.803Z,9.14
2023-02-13T15:19:56.132Z,8.99
2023-02-13T15:22:45.207Z,8.90
2023-02-13T15:25:37.152Z,8.81
2023-02-13T15:28:18.645Z,8.98
2023-02-13T15:31:01.862Z,8.80
2023-02-13T15:33:41.615Z,8.93
2023-02-13T15:36:23.870Z,8.99
2023-02-13T15:39:00.631Z,9.02
2023-02-13T15:41:43.770Z,9.05
2023-02-13T15:44:28.175Z,8.96
2023-02-13T15:47:14.474Z,8.89
2023-02-13T15:49:46.664Z,8.88
2023-02-13T15:52:36.583Z,8.73
2023-02-13T15:55:04.544Z,8.72
2023-02-13T15:57:33.027Z,8.67
2023-02-13T16:00:01.603Z,8.76
2023-02-13T16:02:45.590Z,8.64
2023-02-13T16:05:15.229Z,8.80
2023-02-13T16:07:58.936Z,8.68
2023-02-13T16:10:32.682Z,8.61
2023-02-13T16:13:04.636Z,8.69
2023-02-13T16:15:37.084Z,8.72
2023-02-13T16:18:06.364Z,8.75
2023-02-13T16:20:35.059Z,8.74
2023-02-13T16:23:07.884Z,8.76
2023-02-13T16:25:40.700Z,8.84
2023-02-13T16:28:21.255Z,8.74
2023-02-13T16:31:18.082Z,8.78
2023-02-13T16:33:46.102Z,8.73
2023-02-13T16:36:12.987Z,8.71
2023-02-13T16:38:50.482Z,8.80
2023-02-13T16:41:32.225Z,8.55
2023-02-13T16:44:21.433Z,8.83
2023-02-13T16:46:54.067Z,8.64
2023-02-13T16:49:24.663Z,8.61
2023-02-13T16:51:56.962Z,8.52
2023-02-13T16:54:34.112Z,8.66
2023-02-13T16:57:25.604Z,8.57
2023-02-13T17:00:22.633Z,8.53
2023-02-13T17:02:50.891Z,8.57
2023-02-13T17:05:29.442Z,8.62
2023-02-13T17:07:58.755Z,8.63
2023-02-13T17:10:35.967Z,8.49
2023-02-13T17:13:13.354Z,8.62
2023-02-13T17:15:47.652Z,8.59
2023-02-13T17:18:14.718Z,8.40
2023-02-13T17:20:45.675Z,8.43
2023-02-13T17:23:24.892Z,8.42
2023-02-13T17:25:53.985Z,8.53
2023-02-13T17:28:27.836Z,8.55
2023-02-13T17:30:58.709Z,8.56
2023-02-13T17:33:29.602Z,8.46
2023-02-13T17:35:57.226Z,8.44
2023-02-13T17:38:24.647Z,8.43
2023-02-13T17:40:51.948Z,8.43
2023-02-13T17:43:20.779Z,8.51
2023-02-13T17:45:49.809Z,8.43
2023-02-13T17:48:17.433Z,8.37
2023-02-13T17:50:44.590Z,8.33
2023-02-13T17:53:27.683Z,8.34
2023-02-13T17:55:54.793Z,8.42
2023-02-13T17:58:22.197Z,8.32
2023-02-13T18:00:49.316Z,8.29
2023-02-13T18:03:16.331Z,8.30
2023-02-13T18:05:43.377Z,8.34
2023-02-13T18:08:10.514Z,8.21
2023-02-13T18:10:39.508Z,8.22
2023-02-13T18:13:07.227Z,8.28
2023-02-13T18:15:39.424Z,8.19
2023-02-13T18:18:06.618Z,8.10
2023-02-13T18:20:33.772Z,8.13
2023-02-13T18:23:00.847Z,8.18
2023-02-13T18:25:29.156Z,8.07
2023-02-13T18:27:56.375Z,8.12
2023-02-13T18:30:23.719Z,8.09
2023-02-13T18:32:55.664Z,8.03
2023-02-13T18:35:23.755Z,8.09
2023-02-13T18:37:51.697Z,8.06
2023-02-13T18:40:18.995Z,8.07
2023-02-13T18:42:46.259Z,8.00
2023-02-13T18:45:13.444Z,8.17
2023-02-13T18:47:40.484Z,8.09
2023-02-13T18:50:09.109Z,8.05
2023-02-13T18:52:36.651Z,8.04
2023-02-13T18:55:07.058Z,8.12
2023-02-13T18:57:34.859Z,7.98
2023-02-13T19:00:02.513Z,7.86
2023-02-13T19:02:32.387Z,7.99
2023-02-13T19:04:59.417Z,7.95
2023-02-13T19:07:26.440Z,7.88
2023-02-13T19:09:53.506Z,7.87
2023-02-13T19:12:20.508Z,7.80
2023-02-13T19:14:48.166Z,7.77
2023-02-13T19:17:15.208Z,7.78
2023-02-13T19:19:45.472Z,7.91
2023-02-13T19:22:12.492Z,7.90
2023-02-13T19:24:39.523Z,7.93
2023-02-13T19:27:06.525Z,7.77
2023-02-13T19:29:33.595Z,7.72
2023-02-13T19:32:00.770Z,7.69
2023-02-13T19:34:27.809Z,7.76
2023-02-13T19:36:54.808Z,7.71
2023-02-13T19:39:21.811Z,7.74
2023-02-13T19:41:48.818Z,7.77
2023-02-13T19:44:16.062Z,7.70
2023-02-13T19:46:43.458Z,7.70
2023-02-13T19:49:11.795Z,7.71
2023-02-13T19:51:38.897Z,7.76
2023-02-13T19:54:08.737Z,7.75
2023-02-13T19:56:38.572Z,7.86
2023-02-13T19:59:10.543Z,7.73
2023-02-13T20:01:37.856Z,7.78
2023-02-13T20:04:04.949Z,7.75
2023-02-13T20:06:38.706Z,7.72
2023-02-13T20:09:10.383Z,7.72
2023-02-13T20:11:38.159Z,7.62
2023-02-13T20:14:05.505Z,7.59
2023-02-13T20:16:35.593Z,7.63
2023-02-13T20:19:09.634Z,7.60
2023-02-13T20:21:37.832Z,7.65
2023-02-13T20:24:05.819Z,7.70
2023-02-13T20:26:34.119Z,7.56
2023-02-13T20:29:01.681Z,7.51
2023-02-13T20:31:30.140Z,7.54
2023-02-13T20:33:58.491Z,7.58
2023-02-13T20:36:31.284Z,7.64
2023-02-13T20:39:02.293Z,7.59
2023-02-13T20:41:33.480Z,7.43
2023-02-13T20:44:04.145Z,7.47
2023-02-13T20:46:36.871Z,7.50
2023-02-13T20:49:04.663Z,7.56
2023-02-13T20:51:31.803Z,7.49
2023-02-13T20:54:00.429Z,7.36
2023-02-13T20:56:29.002Z,7.45
2023-02-13T20:58:59.183Z,7.51
2023-02-13T21:01:40.521Z,7.42
2023-02-13T21:04:11.285Z,7.28
2023-02-13T21:06:40.088Z,7.45
2023-02-13T21:09:09.535Z,7.56
2023-02-13T21:11:40.062Z,7.36
2023-02-13T21:14:07.804Z,7.32
2023-02-13T21:16:38.875Z,7.28
2023-02-13T21:19:16.434Z,7.26
2023-02-13T21:21:44.943Z,7.31
2023-02-13T21:24:16.818Z,7.24
2023-02-13T21:26:45.854Z,7.29
2023-02-13T21:29:13.346Z,7.32
2023-02-13T21:31:49.144Z,7.30
2023-02-13T21:34:18.028Z,7.27
2023-02-13T21:36:46.082Z,7.28
2023-02-13T21:39:14.759Z,7.24
2023-02-13T21:41:46.658Z,7.24
2023-02-13T21:44:15.898Z,7.28
2023-02-13T21:46:44.980Z,7.22
2023-02-13T21:49:18.276Z,7.26
2023-02-13T21:51:46.109Z,7.32
2023-02-13T21:54:13.926Z,7.27
2023-02-13T21:56:43.114Z,7.23
2023-02-13T21:59:15.872Z,7.23
2023-02-13T22:01:43.586Z,7.18
2023-02-13T22:04:11.191Z,7.11
2023-02-13T22:06:40.556Z,7.20
2023-02-13T22:09:14.232Z,7.19
2023-02-13T22:11:42.730Z,7.18
2023-02-13T22:14:17.206Z,7.20
2023-02-13T22:16:46.149Z,7.15
2023-02-13T22:19:16.071Z,7.19
2023-02-13T22:21:43.992Z,7.23
2023-02-13T22:24:11.773Z,7.28
2023-02-13T22:26:42.747Z,7.08
2023-02-13T22:29:14.076Z,7.12
2023-02-13T22:31:42.319Z,7.11
2023-02-13T22:34:13.650Z,7.10
2023-02-13T22:36:41.983Z,7.13
2023-02-13T22:39:10.754Z,7.11
2023-02-13T22:41:38.504Z,7.16
2023-02-13T22:44:05.947Z,7.07
2023-02-13T22:46:34.655Z,7.04
2023-02-13T22:49:02.425Z,6.95
2023-02-13T22:51:33.491Z,6.97
2023-02-13T22:54:01.570Z,6.97
2023-02-13T22:56:30.497Z,7.00
2023-02-13T22:58:58.551Z,7.02
2023-02-13T23:01:27.786Z,6.95
2023-02-13T23:03:56.399Z,6.98
2023-02-13T23:06:24.258Z,7.04
2023-02-13T23:08:54.756Z,7.05
2023-02-13T23:11:46.602Z,6.97
2023-02-13T23:14:15.873Z,6.95
2023-02-13T23:17:02.160Z,7.04
2023-02-13T23:19:30.231Z,7.08
2023-02-13T23:21:58.155Z,6.99
2023-02-13T23:24:25.337Z,6.97
2023-02-13T23:26:52.352Z,6.98
2023-02-13T23:29:20.108Z,7.05
2023-02-13T23:31:47.382Z,7.00
2023-02-13T23:34:14.524Z,6.96
2023-02-13T23:36:41.619Z,6.93
2023-02-13T23:39:08.992Z,6.98
2023-02-13T23:41:36.116Z,6.94
2023-02-13T23:44:03.438Z,6.90
2023-02-13T23:46:30.674Z,6.97
2023-02-13T23:48:57.800Z,6.96
2023-02-13T23:51:25.760Z,6.99
2023-02-13T23:53:56.353Z,6.94
2023-02-13T23:56:25.175Z,6.93
2023-02-13T23:58:53.211Z,6.98
